Time;durP1;ratioP1;P1;durP2;ratioP2;P2;SDS_P1;SDS_P2;PMS_P1;PMS_P2;Temp;Humidity;BMP_temperature;BMP_pressure;BME280_temperature;BME280_humidity;BME280_pressure;Samples;Min_cycle;Max_cycle;Signal;HPM_P1;HPM_P2
2022/09/15 00:01:43;;;;;;;1.25;0.50;;;23.00;68.00;;;;;;2346093;53;21015;-77
2022/09/15 00:04:09;;;;;;;1.87;0.50;;;23.00;68.00;;;;;;2350533;53;20997;-76
2022/09/15 00:06:36;;;;;;;1.65;0.60;;;23.00;68.00;;;;;;2366213;53;21049;-75
2022/09/15 00:09:04;;;;;;;2.15;0.62;;;23.00;67.90;;;;;;2418044;52;21775;-76
2022/09/15 00:11:32;;;;;;;1.75;0.50;;;22.90;67.70;;;;;;2374155;52;20965;-75
2022/09/15 00:13:59;;;;;;;3.08;0.90;;;22.90;67.70;;;;;;2364199;53;21073;-75
2022/09/15 00:16:26;;;;;;;2.75;0.62;;;22.90;67.70;;;;;;2368081;53;20943;-76
2022/09/15 00:18:53;;;;;;;2.15;0.50;;;22.90;67.70;;;;;;2612135;52;20932;-76
2022/09/15 00:21:21;;;;;;;1.80;0.70;;;22.90;67.70;;;;;;2454808;52;21489;-76
2022/09/15 00:23:47;;;;;;;1.00;0.60;;;22.90;67.70;;;;;;2590095;52;20941;-75
2022/09/15 00:26:16;;;;;;;1.17;0.28;;;22.90;67.70;;;;;;2343497;53;20913;-76
2022/09/15 00:28:42;;;;;;;1.50;0.60;;;22.90;67.60;;;;;;2360320;53;21019;-75
2022/09/15 00:31:11;;;;;;;2.72;0.68;;;22.80;67.60;;;;;;2372533;53;21078;-76
2022/09/15 00:33:38;;;;;;;1.87;0.62;;;22.80;67.50;;;;;;2564660;52;21000;-76
2022/09/15 00:36:06;;;;;;;1.15;0.50;;;22.80;67.50;;;;;;2589618;52;21679;-75
2022/09/15 00:38:33;;;;;;;2.28;0.60;;;22.80;67.40;;;;;;2344312;53;20921;-76
2022/09/15 00:41:00;;;;;;;1.02;0.40;;;22.80;67.50;;;;;;2353542;53;20978;-76
2022/09/15 00:43:46;;;;;;;1.42;0.47;;;22.80;67.50;;;;;;2387655;52;21445;-76
2022/09/15 00:46:13;;;;;;;2.08;0.55;;;22.90;67.40;;;;;;2343547;53;20956;-77
2022/09/15 00:48:44;;;;;;;1.48;0.57;;;22.80;67.50;;;;;;2380702;53;20975;-76
2022/09/15 00:51:11;;;;;;;2.75;0.70;;;22.80;67.40;;;;;;2344030;53;20901;-76
2022/09/15 00:53:37;;;;;;;1.98;0.60;;;22.80;67.40;;;;;;2343858;53;20960;-77
2022/09/15 00:56:03;;;;;;;2.45;0.50;;;22.80;68.10;;;;;;2439094;52;21495;-76
2022/09/15 00:58:54;;;;;;;1.75;0.70;;;22.80;67.30;;;;;;2347677;53;20905;-76
2022/09/15 01:01:24;;;;;;;1.30;0.50;;;22.80;67.10;;;;;;2355343;53;21003;-77
2022/09/15 01:03:51;;;;;;;0.85;0.40;;;22.80;68.00;;;;;;2353351;53;21009;-77
2022/09/15 01:07:03;;;;;;;1.77;0.50;;;22.80;67.30;;;;;;2344642;53;20948;-76
2022/09/15 01:09:41;;;;;;;1.30;0.60;;;22.90;67.40;;;;;;2488797;52;20932;-76
2022/09/15 01:12:09;;;;;;;1.98;0.70;;;22.80;67.20;;;;;;2343455;53;20942;-77
2022/09/15 01:14:35;;;;;;;1.80;0.70;;;22.80;67.40;;;;;;2344213;53;20957;-76
2022/09/15 01:20:01;;;;;;;3.72;0.68;;;22.80;67.50;;;;;;2343983;53;21567;-76
2022/09/15 01:27:51;;;;;;;1.55;0.60;;;22.80;67.60;;;;;;2345102;53;20921;-76
2022/09/15 01:30:23;;;;;;;1.35;0.40;;;22.70;67.20;;;;;;2342960;53;20983;-76
2022/09/15 01:33:52;;;;;;;3.00;0.62;;;22.70;67.40;;;;;;2345722;53;21008;-76
2022/09/15 01:36:31;;;;;;;2.83;0.57;;;22.70;67.60;;;;;;2345313;53;20940;-77
2022/09/15 01:39:15;;;;;;;1.17;0.50;;;22.60;67.60;;;;;;2346669;53;20960;-76
2022/09/15 01:41:47;;;;;;;1.17;0.40;;;22.60;67.80;;;;;;2345248;53;20988;-76
2022/09/15 01:44:21;;;;;;;1.27;0.55;;;22.60;67.80;;;;;;2342412;53;21781;-76
2022/09/15 01:46:51;;;;;;;1.12;0.40;;;22.50;67.90;;;;;;2368174;53;21115;-76
2022/09/15 01:49:24;;;;;;;1.30;0.50;;;22.50;68.00;;;;;;2380780;53;20951;-76
2022/09/15 01:51:52;;;;;;;1.98;0.60;;;22.50;68.00;;;;;;2456387;52;20924;-75
2022/09/15 01:54:23;;;;;;;2.42;0.57;;;22.50;68.10;;;;;;2343763;53;20921;-76
2022/09/15 01:56:49;;;;;;;1.08;0.50;;;22.40;68.10;;;;;;2449285;52;21023;-75
2022/09/15 01:59:16;;;;;;;1.08;0.40;;;22.40;68.20;;;;;;2346232;53;20976;-75
2022/09/15 02:01:50;;;;;;;1.70;0.50;;;22.40;68.30;;;;;;2344968;53;20956;-76
2022/09/15 02:04:37;;;;;;;1.62;0.50;;;22.40;68.30;;;;;;2345035;52;20992;-75
2022/09/15 02:07:20;;;;;;;1.40;0.45;;;22.40;68.40;;;;;;2425093;52;20996;-75
2022/09/15 02:09:55;;;;;;;0.93;0.40;;;22.40;68.40;;;;;;2345169;53;20916;-75
2022/09/15 02:13:04;;;;;;;1.55;0.52;;;22.40;68.40;;;;;;2343935;53;21346;-75
2022/09/15 02:15:46;;;;;;;1.40;0.50;;;22.30;68.20;;;;;;2374774;52;21032;-76
2022/09/15 02:18:21;;;;;;;2.42;0.50;;;22.30;68.30;;;;;;2491159;52;21035;-75
2022/09/15 02:20:57;;;;;;;1.00;0.40;;;22.30;68.40;;;;;;2384129;52;20955;-75
2022/09/15 02:23:34;;;;;;;1.17;0.40;;;22.30;68.30;;;;;;2359757;53;21000;-75
2022/09/15 02:26:07;;;;;;;1.65;0.50;;;22.30;68.40;;;;;;2421456;52;21279;-75
2022/09/15 02:28:35;;;;;;;1.90;0.70;;;22.30;68.40;;;;;;2592735;52;21064;-76
2022/09/15 02:31:02;;;;;;;1.00;0.40;;;22.30;68.40;;;;;;2371273;53;21083;-76
2022/09/15 02:33:33;;;;;;;1.35;0.57;;;22.20;68.30;;;;;;2387384;52;21002;-75
2022/09/15 02:35:59;;;;;;;1.65;0.65;;;22.20;68.30;;;;;;2333229;54;21690;-75
2022/09/15 02:38:27;;;;;;;1.30;0.50;;;22.20;68.40;;;;;;2343511;53;20949;-76
2022/09/15 02:40:53;;;;;;;1.65;0.60;;;22.20;68.40;;;;;;2459488;52;21019;-75
2022/09/15 02:43:22;;;;;;;2.25;0.68;;;22.20;68.40;;;;;;2362529;53;20931;-75
2022/09/15 02:45:48;;;;;;;2.12;0.68;;;22.20;68.40;;;;;;2347430;53;20960;-76
2022/09/15 02:48:14;;;;;;;2.75;0.70;;;22.10;68.40;;;;;;2343556;53;21418;-76
2022/09/15 02:50:41;;;;;;;0.93;0.37;;;22.10;68.40;;;;;;2343884;53;21953;-75
2022/09/15 02:53:08;;;;;;;1.33;0.60;;;22.10;68.50;;;;;;2343610;53;20913;-75
2022/09/15 02:55:35;;;;;;;1.37;0.55;;;22.10;68.50;;;;;;2428621;52;21076;-76
2022/09/15 02:58:02;;;;;;;1.65;0.40;;;22.10;68.50;;;;;;2345248;53;21417;-76
2022/09/15 03:00:29;;;;;;;2.00;0.60;;;22.10;68.50;;;;;;2343009;53;21413;-76
2022/09/15 03:02:57;;;;;;;1.33;0.50;;;22.10;68.50;;;;;;2583602;52;21004;-76
2022/09/15 03:05:25;;;;;;;2.55;0.70;;;22.10;68.50;;;;;;2379022;52;21031;-75
2022/09/15 03:07:52;;;;;;;2.92;0.60;;;22.10;68.60;;;;;;2370414;53;20956;-75
2022/09/15 03:10:21;;;;;;;1.40;0.40;;;22.10;68.60;;;;;;2371397;53;20975;-76
2022/09/15 03:12:49;;;;;;;1.67;0.55;;;22.00;68.50;;;;;;2361667;53;21030;-76
2022/09/15 03:15:16;;;;;;;1.77;0.60;;;22.00;68.60;;;;;;2466015;52;21024;-76
2022/09/15 03:17:43;;;;;;;1.83;0.50;;;22.00;68.60;;;;;;2344009;53;21763;-75
2022/09/15 03:20:11;;;;;;;1.27;0.50;;;22.00;68.60;;;;;;2556087;52;21070;-75
2022/09/15 03:22:37;;;;;;;1.35;0.55;;;22.00;68.70;;;;;;2367876;53;20927;-75
2022/09/15 03:25:07;;;;;;;1.08;0.50;;;22.00;68.60;;;;;;2351350;53;21013;-76
2022/09/15 03:27:33;;;;;;;0.93;0.45;;;22.00;68.60;;;;;;2366748;53;20979;-76
2022/09/15 03:30:00;;;;;;;1.95;0.60;;;22.00;68.60;;;;;;2366148;53;20932;-75
2022/09/15 03:32:26;;;;;;;3.33;0.68;;;22.00;68.60;;;;;;2355480;53;20979;-75
2022/09/15 03:34:53;;;;;;;1.65;0.60;;;22.00;68.60;;;;;;2494730;52;21016;-75
2022/09/15 03:37:20;;;;;;;1.10;0.50;;;22.00;68.70;;;;;;2478111;52;21367;-76
2022/09/15 03:39:48;;;;;;;3.25;0.50;;;22.00;68.60;;;;;;2346739;53;21075;-75
2022/09/15 03:42:14;;;;;;;1.35;0.55;;;22.00;68.60;;;;;;2436592;52;21915;-74
2022/09/15 03:44:41;;;;;;;1.83;0.60;;;22.00;68.60;;;;;;2368184;53;20984;-76
2022/09/15 03:47:07;;;;;;;1.60;0.70;;;22.00;68.60;;;;;;2438121;52;20897;-76
2022/09/15 03:49:36;;;;;;;0.95;0.50;;;22.00;68.50;;;;;;2524775;52;21919;-75
2022/09/15 03:52:07;;;;;;;1.08;0.50;;;22.00;68.50;;;;;;2353180;53;21421;-76
2022/09/15 03:54:34;;;;;;;1.50;0.70;;;22.00;68.50;;;;;;2365665;53;20951;-76
2022/09/15 03:57:00;;;;;;;1.83;0.65;;;22.00;68.50;;;;;;2366731;53;20990;-75
2022/09/15 03:59:27;;;;;;;3.30;0.60;;;22.00;68.50;;;;;;2371242;53;21028;-76
2022/09/15 04:01:53;;;;;;;1.35;0.65;;;22.00;68.50;;;;;;2354193;53;21049;-75
2022/09/15 04:04:19;;;;;;;1.45;0.50;;;22.00;68.50;;;;;;2595050;52;21589;-76
2022/09/15 04:06:46;;;;;;;2.20;0.68;;;22.00;68.60;;;;;;2344020;53;20932;-76
2022/09/15 04:09:12;;;;;;;1.87;0.70;;;22.00;68.70;;;;;;2361475;53;21043;-76
2022/09/15 04:11:39;;;;;;;3.22;0.60;;;21.90;68.50;;;;;;2350904;53;20925;-76
2022/09/15 04:14:05;;;;;;;1.48;0.68;;;21.90;68.50;;;;;;2362873;53;20958;-76
2022/09/15 04:16:32;;;;;;;1.45;0.60;;;21.90;68.60;;;;;;2415761;52;21275;-77
2022/09/15 04:18:59;;;;;;;1.48;0.60;;;21.90;68.60;;;;;;2343149;53;21033;-75
2022/09/15 04:21:25;;;;;;;1.70;0.60;;;21.90;68.60;;;;;;2343696;53;20901;-78
2022/09/15 04:23:52;;;;;;;1.65;0.60;;;21.90;68.70;;;;;;2357371;52;21774;-77
2022/09/15 04:26:30;;;;;;;2.40;0.60;;;21.90;68.70;;;;;;2605316;52;20929;-77
2022/09/15 04:28:56;;;;;;;3.33;0.70;;;21.90;68.70;;;;;;2343711;53;20925;-76
2022/09/15 04:31:24;;;;;;;3.33;0.65;;;21.90;68.70;;;;;;2340383;53;21004;-77
2022/09/15 04:33:51;;;;;;;1.25;0.40;;;21.80;68.70;;;;;;2342655;53;21015;-77
2022/09/15 04:36:19;;;;;;;1.12;0.50;;;21.80;68.80;;;;;;2343163;53;20933;-77
2022/09/15 04:38:46;;;;;;;1.75;0.57;;;21.80;68.90;;;;;;2342305;53;20960;-77
2022/09/15 04:41:13;;;;;;;1.33;0.50;;;21.80;68.90;;;;;;2346073;53;20921;-76
2022/09/15 04:43:39;;;;;;;1.35;0.60;;;21.80;69.00;;;;;;2355307;53;21716;-77
2022/09/15 04:46:06;;;;;;;1.02;0.40;;;21.80;69.00;;;;;;2388831;52;20917;-77
2022/09/15 04:48:32;;;;;;;1.50;0.50;;;21.80;69.10;;;;;;2358826;53;20912;-76
2022/09/15 04:51:15;;;;;;;1.25;0.50;;;21.80;69.10;;;;;;2368713;53;21606;-76
2022/09/15 04:53:43;;;;;;;0.90;0.40;;;21.80;69.10;;;;;;2359959;53;21098;-77
2022/09/15 04:56:11;;;;;;;1.73;0.60;;;21.80;69.10;;;;;;2375471;52;21491;-76
2022/09/15 04:58:39;;;;;;;0.90;0.35;;;21.80;69.20;;;;;;2400598;52;20992;-76
2022/09/15 05:01:17;;;;;;;1.98;0.60;;;21.80;69.20;;;;;;2359878;53;20980;-76
2022/09/15 05:03:45;;;;;;;2.80;0.52;;;21.80;69.30;;;;;;2341728;53;20976;-76
2022/09/15 05:06:12;;;;;;;1.90;0.50;;;21.80;69.30;;;;;;2339984;53;21636;-77
2022/09/15 05:08:39;;;;;;;1.55;0.60;;;21.80;69.40;;;;;;2595756;52;21035;-75
2022/09/15 05:11:07;;;;;;;1.15;0.40;;;21.80;69.40;;;;;;2605064;52;20969;-76
2022/09/15 05:13:33;;;;;;;2.25;0.40;;;21.80;69.50;;;;;;2481808;52;20928;-76
2022/09/15 05:16:13;;;;;;;2.28;0.50;;;21.80;69.50;;;;;;2466891;52;21011;-76
2022/09/15 05:18:40;;;;;;;1.37;0.50;;;21.80;69.50;;;;;;2604870;52;21514;-76
2022/09/15 05:21:07;;;;;;;1.10;0.37;;;21.70;69.40;;;;;;2400254;52;21034;-76
2022/09/15 05:23:33;;;;;;;2.42;0.80;;;21.70;69.50;;;;;;2358745;53;20948;-76
2022/09/15 05:26:02;;;;;;;1.87;0.57;;;21.80;69.60;;;;;;2366050;53;21425;-77
2022/09/15 05:28:30;;;;;;;1.95;0.70;;;21.80;69.60;;;;;;2372297;53;20983;-76
2022/09/15 05:30:56;;;;;;;2.85;0.70;;;21.70;69.50;;;;;;2346080;53;21031;-76
2022/09/15 05:33:23;;;;;;;3.05;0.60;;;21.70;69.50;;;;;;2490496;52;20963;-76
2022/09/15 05:35:56;;;;;;;1.40;0.50;;;21.70;69.50;;;;;;2361436;53;21019;-76
2022/09/15 05:38:24;;;;;;;1.25;0.40;;;21.70;69.40;;;;;;2347051;53;20967;-76
2022/09/15 05:40:50;;;;;;;1.20;0.50;;;21.70;69.40;;;;;;2362031;53;21059;-75
2022/09/15 05:43:17;;;;;;;0.65;0.40;;;21.70;69.40;;;;;;2372449;53;21828;-76
2022/09/15 05:45:43;;;;;;;1.62;0.50;;;21.70;69.50;;;;;;2347471;53;21013;-76
2022/09/15 05:48:10;;;;;;;2.03;0.55;;;21.70;69.40;;;;;;2418495;52;21027;-76
2022/09/15 05:50:37;;;;;;;1.33;0.40;;;21.70;69.50;;;;;;2373517;53;20951;-77
2022/09/15 05:53:06;;;;;;;2.58;1.12;;;21.70;69.50;;;;;;2452954;52;21840;-76
2022/09/15 05:55:38;;;;;;;1.45;0.40;;;21.70;69.60;;;;;;2362045;53;20996;-75
2022/09/15 05:58:05;;;;;;;2.42;0.50;;;21.60;70.20;;;;;;2464697;52;20959;-76
2022/09/15 06:00:31;;;;;;;1.90;0.70;;;21.60;69.50;;;;;;2605079;52;21716;-76
2022/09/15 06:02:57;;;;;;;2.83;0.50;;;21.60;69.50;;;;;;2423743;52;20916;-76
2022/09/15 06:05:27;;;;;;;1.58;0.70;;;21.60;69.50;;;;;;2365738;53;21435;-76
2022/09/15 06:07:54;;;;;;;1.37;0.50;;;21.60;69.50;;;;;;2399075;52;20979;-76
2022/09/15 06:10:23;;;;;;;1.45;0.60;;;21.60;69.50;;;;;;2540702;52;21010;-76
2022/09/15 06:12:53;;;;;;;1.02;0.50;;;21.60;69.50;;;;;;2349958;53;20992;-77
2022/09/15 06:15:20;;;;;;;1.12;0.50;;;21.60;69.50;;;;;;2343856;53;20937;-76
2022/09/15 06:17:46;;;;;;;1.15;0.50;;;21.60;69.60;;;;;;2413529;52;21100;-76
2022/09/15 06:20:12;;;;;;;2.50;0.62;;;21.60;69.60;;;;;;2354682;53;21038;-76
2022/09/15 06:22:39;;;;;;;1.08;0.40;;;21.60;69.70;;;;;;2380424;52;20981;-76
2022/09/15 06:25:06;;;;;;;2.62;0.60;;;21.60;69.70;;;;;;2346064;53;20925;-76
2022/09/15 06:27:32;;;;;;;1.48;0.50;;;21.50;69.60;;;;;;2344919;53;21490;-76
2022/09/15 06:30:00;;;;;;;1.67;0.60;;;21.50;69.70;;;;;;2602275;52;20932;-76
2022/09/15 06:32:26;;;;;;;1.25;0.50;;;21.50;69.70;;;;;;2365115;53;20940;-76
2022/09/15 06:34:52;;;;;;;1.08;0.45;;;21.50;69.70;;;;;;2450442;52;21445;-76
2022/09/15 06:37:18;;;;;;;1.90;0.60;;;21.50;69.80;;;;;;2502871;52;21538;-76
2022/09/15 06:39:44;;;;;;;1.35;0.40;;;21.50;69.80;;;;;;2373609;53;21341;-76
2022/09/15 06:42:11;;;;;;;1.15;0.45;;;21.50;69.80;;;;;;2368772;53;21847;-77
2022/09/15 06:44:39;;;;;;;1.25;0.60;;;21.50;69.80;;;;;;2369722;53;20971;-76
2022/09/15 06:47:06;;;;;;;1.35;0.43;;;21.50;69.90;;;;;;2375937;53;21069;-76
2022/09/15 06:49:32;;;;;;;2.05;0.70;;;21.50;69.80;;;;;;2375930;53;20959;-76
2022/09/15 06:52:01;;;;;;;2.00;0.55;;;21.50;69.90;;;;;;2369331;53;20944;-77
2022/09/15 06:54:27;;;;;;;1.92;0.70;;;21.50;70.60;;;;;;2366590;53;21110;-77
2022/09/15 06:56:59;;;;;;;2.35;0.60;;;21.50;70.00;;;;;;2357117;53;21083;-76
2022/09/15 06:59:25;;;;;;;1.73;0.60;;;21.50;70.00;;;;;;2375946;53;20951;-76
2022/09/15 07:01:53;;;;;;;1.20;0.50;;;21.50;70.00;;;;;;2350277;53;21860;-76
2022/09/15 07:04:19;;;;;;;2.87;0.73;;;21.50;70.80;;;;;;2384567;52;21570;-76
2022/09/15 07:06:45;;;;;;;1.73;0.62;;;21.50;70.20;;;;;;2373250;53;21003;-76
2022/09/15 07:09:13;;;;;;;1.30;0.50;;;21.50;70.20;;;;;;2359583;53;20973;-76
2022/09/15 07:11:39;;;;;;;0.90;0.40;;;21.40;70.10;;;;;;2362562;53;20920;-76
2022/09/15 07:14:05;;;;;;;1.02;0.40;;;21.50;70.30;;;;;;2368458;53;21006;-75
2022/09/15 07:16:31;;;;;;;2.15;0.43;;;21.50;70.40;;;;;;2348119;53;21071;-76
2022/09/15 07:19:00;;;;;;;0.85;0.40;;;21.50;70.40;;;;;;2344548;53;20928;-76
2022/09/15 07:21:29;;;;;;;2.03;0.62;;;21.50;70.50;;;;;;2483161;52;20987;-76
2022/09/15 07:23:56;;;;;;;2.10;0.80;;;21.50;70.60;;;;;;2347357;53;20932;-76
2022/09/15 07:26:26;;;;;;;2.80;1.08;;;21.50;70.60;;;;;;2362744;53;20976;-76
2022/09/15 07:28:59;;;;;;;6.28;1.17;;;21.50;70.70;;;;;;2361940;53;20923;-75
2022/09/15 07:31:26;;;;;;;;;;;21.60;70.80;;;;;;2356732;53;21111;-74
2022/09/15 07:33:53;;;;;;;1.77;0.80;;;21.60;70.60;;;;;;2604805;52;20045;-74
2022/09/15 07:36:20;;;;;;;2.08;0.60;;;21.60;70.60;;;;;;2589074;52;20984;-75
2022/09/15 07:38:47;;;;;;;1.55;0.57;;;21.60;70.70;;;;;;2368967;53;21104;-74
2022/09/15 07:41:21;;;;;;;4.37;1.20;;;21.60;70.80;;;;;;2342986;53;21012;-74
2022/09/15 07:43:51;;;;;;;2.83;0.50;;;21.60;70.80;;;;;;2343655;53;21004;-74
2022/09/15 07:46:19;;;;;;;1.62;0.65;;;21.60;70.80;;;;;;2369446;53;21075;-74
2022/09/15 07:48:46;;;;;;;2.28;0.70;;;21.60;70.80;;;;;;2367507;53;21039;-73
2022/09/15 07:51:12;;;;;;;1.15;0.50;;;21.60;70.80;;;;;;2348454;53;21011;-74
2022/09/15 07:53:38;;;;;;;1.60;0.65;;;21.60;70.80;;;;;;2364731;53;21080;-74
2022/09/15 07:56:05;;;;;;;1.37;0.45;;;21.60;70.90;;;;;;2354164;53;20995;-73
2022/09/15 07:58:31;;;;;;;1.92;0.50;;;21.70;71.00;;;;;;2356702;53;20928;-73
2022/09/15 08:01:06;;;;;;;0.68;0.35;;;21.70;71.00;;;;;;2362127;53;20951;-74
2022/09/15 08:03:32;;;;;;;2.03;0.40;;;21.70;71.00;;;;;;2374180;53;20979;-73
2022/09/15 08:06:01;;;;;;;1.90;0.60;;;21.70;71.00;;;;;;2371076;53;20947;-74
2022/09/15 08:08:28;;;;;;;0.57;0.30;;;21.70;71.00;;;;;;2346051;53;21036;-74
2022/09/15 08:10:54;;;;;;;0.88;0.40;;;21.80;71.10;;;;;;2367650;53;20940;-73
2022/09/15 08:13:21;;;;;;;0.93;0.30;;;21.80;71.10;;;;;;2371175;53;20932;-75
2022/09/15 08:15:47;;;;;;;2.30;1.12;;;21.80;71.20;;;;;;2362581;53;20964;-74
2022/09/15 08:18:13;;;;;;;1.85;0.77;;;21.80;71.20;;;;;;2361260;53;20959;-74
2022/09/15 08:20:40;;;;;;;1.65;0.60;;;21.90;71.30;;;;;;2347462;53;21025;-74
2022/09/15 08:23:07;;;;;;;1.87;0.70;;;21.90;71.40;;;;;;2606083;52;21908;-74
2022/09/15 08:25:33;;;;;;;1.00;0.50;;;21.90;71.40;;;;;;2366807;53;20963;-75
2022/09/15 08:28:03;;;;;;;1.45;0.55;;;21.90;71.50;;;;;;2365766;53;21039;-74
2022/09/15 08:30:30;;;;;;;1.58;0.50;;;22.00;71.60;;;;;;2351999;53;21496;-74
2022/09/15 08:32:56;;;;;;;0.88;0.45;;;22.00;71.60;;;;;;2461371;52;21880;-74
2022/09/15 08:35:25;;;;;;;2.35;0.60;;;22.00;71.50;;;;;;2505668;52;20908;-74
2022/09/15 08:37:53;;;;;;;1.33;0.60;;;22.10;71.50;;;;;;2386240;52;21820;-74
2022/09/15 08:40:31;;;;;;;1.95;0.43;;;22.10;71.40;;;;;;2340202;53;20940;-74
2022/09/15 08:43:00;;;;;;;1.55;0.62;;;22.20;71.40;;;;;;2352480;53;21020;-74
2022/09/15 08:45:31;;;;;;;1.60;0.70;;;22.20;71.20;;;;;;2369654;53;21965;-75
2022/09/15 08:47:59;;;;;;;1.48;0.55;;;22.20;71.10;;;;;;2366162;53;21119;-75
2022/09/15 08:50:51;;;;;;;2.20;0.60;;;22.20;71.00;;;;;;2370357;53;20951;-74
2022/09/15 08:53:34;;;;;;;1.48;0.60;;;22.30;71.00;;;;;;2359916;53;21010;-75
2022/09/15 08:56:03;;;;;;;1.73;0.50;;;22.30;70.90;;;;;;2367974;53;21031;-75
2022/09/15 08:58:34;;;;;;;2.55;0.70;;;22.30;71.00;;;;;;2499428;52;20913;-75
2022/09/15 09:01:55;;;;;;;1.37;0.52;;;22.30;71.00;;;;;;2361016;53;21060;-75
2022/09/15 09:12:40;;;;;;;1.02;0.40;;;22.40;71.00;;;;;;2359353;53;20920;-74
2022/09/15 09:20:30;;;;;;;1.30;0.52;;;22.40;70.50;;;;;;2447665;52;20952;-75
2022/09/15 09:22:57;;;;;;;2.12;0.65;;;22.40;70.30;;;;;;2406812;52;20976;-75
2022/09/15 09:25:23;;;;;;;1.90;0.70;;;22.40;70.20;;;;;;2378230;52;21926;-75
2022/09/15 09:27:54;;;;;;;3.08;1.00;;;22.40;70.30;;;;;;2375440;53;20943;-76
2022/09/15 09:30:21;;;;;;;3.20;1.05;;;22.40;70.60;;;;;;2370156;53;20963;-75
2022/09/15 09:33:18;;;;;;;2.05;0.73;;;22.30;70.60;;;;;;2359306;53;21003;-75
2022/09/15 09:35:50;;;;;;;3.17;0.80;;;22.30;70.70;;;;;;2349864;53;20905;-76
2022/09/15 09:38:30;;;;;;;4.63;1.20;;;22.30;70.80;;;;;;2358203;53;20944;-75
2022/09/15 09:40:57;;;;;;;2.25;0.80;;;22.30;70.90;;;;;;2351262;53;21285;-75
2022/09/15 09:43:27;;;;;;;2.80;1.02;;;22.30;71.00;;;;;;2365606;53;21056;-75
2022/09/15 09:45:54;;;;;;;2.65;1.12;;;22.30;71.00;;;;;;2349181;53;20975;-75
2022/09/15 09:48:22;;;;;;;2.53;0.95;;;22.40;71.20;;;;;;2342418;53;21536;-75
2022/09/15 09:50:49;;;;;;;1.75;0.80;;;22.40;71.30;;;;;;2343937;53;20975;-75
2022/09/15 09:53:30;;;;;;;2.05;0.80;;;22.40;71.40;;;;;;2343522;53;20917;-75
2022/09/15 09:56:23;;;;;;;3.45;0.82;;;22.40;71.50;;;;;;2343930;53;20932;-75
2022/09/15 09:58:50;;;;;;;2.47;1.08;;;22.40;71.30;;;;;;2453638;52;20991;-75
2022/09/15 10:01:34;;;;;;;2.03;0.80;;;22.50;71.30;;;;;;2348468;53;20980;-75
2022/09/15 10:04:12;;;;;;;2.58;0.70;;;22.50;71.20;;;;;;2407536;52;21749;-76
2022/09/15 10:06:38;;;;;;;2.67;0.95;;;22.50;71.20;;;;;;2589619;52;20941;-75
2022/09/15 10:09:12;;;;;;;2.05;0.90;;;22.50;71.20;;;;;;2344200;53;20948;-75
2022/09/15 10:11:49;;;;;;;2.35;0.82;;;22.50;71.30;;;;;;2342870;53;20981;-75
2022/09/15 10:14:38;;;;;;;3.53;0.90;;;22.60;71.50;;;;;;2346391;53;20924;-75
2022/09/15 10:18:04;;;;;;;2.08;0.80;;;22.60;71.50;;;;;;2443323;52;20936;-75
2022/09/15 10:20:46;;;;;;;1.80;0.73;;;22.60;71.40;;;;;;2343149;52;20977;-75
2022/09/15 10:23:31;;;;;;;2.75;0.73;;;22.60;71.20;;;;;;2343430;53;21030;-75
2022/09/15 10:26:21;;;;;;;1.60;0.80;;;22.70;71.20;;;;;;2342983;53;20944;-75
2022/09/15 10:29:15;;;;;;;1.90;0.70;;;22.60;71.10;;;;;;2356325;53;20936;-75
2022/09/15 10:31:42;;;;;;;2.55;0.80;;;22.70;71.20;;;;;;2350262;53;21488;-75
2022/09/15 10:38:03;;;;;;;2.15;0.60;;;22.70;71.20;;;;;;2345691;52;21429;-75
2022/09/15 10:44:03;;;;;;;2.33;0.80;;;22.70;70.90;;;;;;2376011;53;20982;-75
2022/09/15 10:46:44;;;;;;;2.17;0.70;;;22.80;70.70;;;;;;2366745;53;21007;-79
2022/09/15 10:49:32;;;;;;;1.70;0.60;;;22.70;69.80;;;;;;2370936;53;2242065;-78
2022/09/15 10:53:41;;;;;;;2.15;0.60;;;22.70;69.50;;;;;;2374696;53;20999;-77
2022/09/15 10:56:27;;;;;;;1.50;0.40;;;22.60;68.90;;;;;;2346470;53;21521;-77
2022/09/15 11:00:16;;;;;;;1.35;0.70;;;22.50;67.50;;;;;;2539543;52;21780;-76
2022/09/15 11:03:19;;;;;;;0.73;0.30;;;22.30;67.00;;;;;;2390613;52;21002;-76
2022/09/15 11:10:59;;;;;;;1.25;0.50;;;22.10;66.60;;;;;;2443518;52;20920;-78
2022/09/15 11:13:58;;;;;;;1.15;0.30;;;21.70;66.40;;;;;;2358803;53;20987;-77
2022/09/15 11:17:56;;;;;;;4.03;0.50;;;21.40;66.00;;;;;;2354140;53;21001;-77
2022/09/15 11:20:55;;;;;;;1.35;0.40;;;21.20;66.30;;;;;;2362877;53;21365;-76
2022/09/15 11:23:33;;;;;;;1.33;0.47;;;20.90;66.60;;;;;;2419409;52;20995;-76
2022/09/15 11:26:18;;;;;;;1.17;0.43;;;20.70;67.00;;;;;;2368692;53;21032;-76
2022/09/15 11:31:50;;;;;;;1.27;0.60;;;20.60;67.40;;;;;;2343813;53;20929;-77
2022/09/15 11:34:21;;;;;;;0.95;0.40;;;20.50;67.70;;;;;;2529860;52;20957;-76
2022/09/15 11:37:11;;;;;;;0.90;0.40;;;20.30;67.90;;;;;;2522572;52;20945;-77
2022/09/15 11:40:38;;;;;;;2.05;0.50;;;20.20;68.90;;;;;;2355869;53;21547;-76
2022/09/15 11:43:24;;;;;;;1.52;0.52;;;20.10;68.20;;;;;;2376423;52;21959;-76
2022/09/15 11:45:54;;;;;;;1.92;0.70;;;20.00;68.40;;;;;;2342790;53;20924;-76
2022/09/15 11:49:46;;;;;;;1.83;0.65;;;20.00;68.80;;;;;;2362090;53;21963;-76
2022/09/15 11:59:19;;;;;;;2.10;0.90;;;19.90;69.10;;;;;;2577351;52;20960;-76
2022/09/15 12:02:07;;;;;;;2.03;0.75;;;19.90;69.00;;;;;;2365952;53;20940;-76
2022/09/15 12:08:17;;;;;;;2.65;0.98;;;19.80;68.90;;;;;;2362690;53;21015;-76
2022/09/15 12:10:48;;;;;;;2.35;0.82;;;19.70;69.10;;;;;;2361011;53;21141;-75
2022/09/15 12:13:20;;;;;;;3.17;1.15;;;19.70;69.30;;;;;;2350004;53;20941;-75
2022/09/15 12:15:47;;;;;;;2.37;0.98;;;19.70;69.50;;;;;;2365094;53;20924;-76
2022/09/15 12:18:28;;;;;;;2.47;1.20;;;19.70;69.80;;;;;;2444191;52;21063;-75
2022/09/15 12:21:21;;;;;;;2.08;0.95;;;19.70;70.10;;;;;;2346454;53;21020;-76
2022/09/15 12:23:55;;;;;;;3.33;1.12;;;19.70;70.10;;;;;;2367661;53;21070;-75
2022/09/15 12:26:22;;;;;;;2.70;1.08;;;19.70;70.20;;;;;;2358563;52;21003;-75
2022/09/15 12:29:01;;;;;;;3.05;1.10;;;19.60;70.20;;;;;;2342885;53;20970;-75
2022/09/15 12:31:32;;;;;;;3.40;1.42;;;19.80;70.70;;;;;;2344726;53;20956;-75
2022/09/15 12:37:06;;;;;;;3.00;1.40;;;19.80;70.60;;;;;;2474043;52;20975;-75
2022/09/15 12:39:40;;;;;;;2.60;1.10;;;19.90;70.10;;;;;;2368435;53;21003;-75
2022/09/15 12:42:48;;;;;;;3.40;1.27;;;19.90;70.50;;;;;;2364155;53;20990;-75
2022/09/15 12:45:34;;;;;;;4.90;1.60;;;20.00;70.50;;;;;;2360156;53;21764;-75
2022/09/15 12:49:13;;;;;;;3.00;1.20;;;20.00;70.50;;;;;;2605699;52;20987;-74
2022/09/15 12:51:41;;;;;;;3.45;1.12;;;20.10;70.60;;;;;;2349687;53;21095;-74
2022/09/15 12:54:14;;;;;;;3.53;1.10;;;20.10;70.30;;;;;;2369848;52;20974;-74
2022/09/15 12:56:48;;;;;;;3.45;1.15;;;20.10;70.20;;;;;;2347424;53;20928;-75
2022/09/15 12:59:14;;;;;;;3.08;1.40;;;20.10;70.30;;;;;;2569306;52;21107;-74
2022/09/15 13:01:47;;;;;;;3.53;1.20;;;20.20;70.60;;;;;;2522915;52;21017;-74
2022/09/15 13:04:52;;;;;;;2.60;1.10;;;20.20;70.70;;;;;;2344399;53;20940;-74
2022/09/15 13:07:28;;;;;;;;;;;20.20;70.90;;;;;;2402490;52;20997;-74
2022/09/15 13:10:25;;;;;;;3.12;1.30;;;20.30;70.60;;;;;;2347042;53;20058;-74
2022/09/15 13:12:58;;;;;;;3.62;1.30;;;20.30;70.40;;;;;;2344172;53;20945;-74
2022/09/15 13:15:32;;;;;;;2.22;1.00;;;20.40;70.60;;;;;;2347926;53;21492;-75
2022/09/15 13:17:58;;;;;;;2.80;1.33;;;20.40;70.50;;;;;;2382251;53;20984;-73
2022/09/15 13:20:28;;;;;;;3.05;1.08;;;20.50;70.50;;;;;;2355938;53;21010;-73
2022/09/15 13:22:55;;;;;;;3.08;1.27;;;20.50;70.20;;;;;;2347438;53;20992;-74
2022/09/15 13:25:23;;;;;;;3.08;1.15;;;20.50;70.40;;;;;;2343765;53;21413;-74
2022/09/15 13:27:54;;;;;;;3.90;1.37;;;20.50;70.30;;;;;;2358278;53;21799;-74
2022/09/15 13:31:57;;;;;;;1.95;1.00;;;20.60;70.30;;;;;;2344928;53;20909;-74
2022/09/15 13:41:17;;;;;;;1.87;0.98;;;20.70;70.10;;;;;;2342863;53;20980;-74
2022/09/15 13:47:36;;;;;;;2.00;0.90;;;20.80;69.80;;;;;;2343155;53;20983;-74
2022/09/15 13:50:18;;;;;;;1.48;0.70;;;20.80;69.70;;;;;;2345368;53;20991;-74
2022/09/15 13:56:25;;;;;;;2.15;0.77;;;20.80;69.70;;;;;;2344816;53;21340;-73
2022/09/15 13:58:52;;;;;;;1.55;0.70;;;20.90;69.70;;;;;;2344771;53;20980;-73
2022/09/15 14:01:22;;;;;;;2.20;0.70;;;20.90;70.00;;;;;;2344233;53;20917;-74
2022/09/15 14:03:53;;;;;;;2.00;0.90;;;20.90;70.10;;;;;;2414213;52;21434;-74
2022/09/15 14:06:48;;;;;;;2.28;0.80;;;20.90;70.20;;;;;;2588891;52;20940;-74
2022/09/15 14:09:25;;;;;;;3.75;0.90;;;20.90;70.10;;;;;;2346806;53;20984;-73
2022/09/15 14:12:00;;;;;;;2.62;1.08;;;21.00;70.40;;;;;;2585165;52;20924;-74
2022/09/15 14:14:41;;;;;;;1.98;0.90;;;20.90;70.50;;;;;;2343385;53;20971;-74
2022/09/15 14:17:23;;;;;;;2.30;0.90;;;21.00;70.70;;;;;;2347511;53;21020;-73
2022/09/15 14:19:51;;;;;;;2.08;0.90;;;21.10;70.70;;;;;;2343827;53;21343;-74
2022/09/15 14:22:28;;;;;;;2.75;1.10;;;21.10;70.60;;;;;;2343625;53;20992;-74
2022/09/15 14:25:03;;;;;;;3.33;1.45;;;21.20;70.70;;;;;;2343961;53;20956;-74
2022/09/15 14:27:31;;;;;;;3.97;1.30;;;21.20;70.70;;;;;;2343615;53;21762;-74